sensor_id;sensor_type;location;lat;lon;timestamp;P1;durP1;ratioP1;P2;durP2;ratioP2
41043;SDS011;51680;49.806;18.774;2022-11-04T00:00:08;8.85;;;3.45;;
41043;SDS011;51680;49.806;18.774;2022-11-04T00:03:12;7.53;;;3.90;;
41043;SDS011;51680;49.806;18.774;2022-11-04T00:06:14;9.93;;;3.28;;
41043;SDS011;51680;49.806;18.774;2022-11-04T00:09:16;7.88;;;3.25;;
41043;SDS011;51680;49.806;18.774;2022-11-04T00:12:19;6.95;;;3.65;;
41043;SDS011;51680;49.806;18.774;2022-11-04T00:15:26;7.60;;;2.92;;
41043;SDS011;51680;49.806;18.774;2022-11-04T00:18:59;6.18;;;3.50;;
41043;SDS011;51680;49.806;18.774;2022-11-04T00:25:16;8.18;;;3.20;;
41043;SDS011;51680;49.806;18.774;2022-11-04T00:28:36;9.80;;;2.85;;
41043;SDS011;51680;49.806;18.774;2022-11-04T00:31:43;15.27;;;3.75;;
41043;SDS011;51680;49.806;18.774;2022-11-04T00:35:04;8.10;;;2.60;;
41043;SDS011;51680;49.806;18.774;2022-11-04T00:38:06;5.22;;;2.10;;
41043;SDS011;51680;49.806;18.774;2022-11-04T00:41:08;4.20;;;2.30;;
41043;SDS011;51680;49.806;18.774;2022-11-04T00:44:24;4.35;;;1.40;;
41043;SDS011;51680;49.806;18.774;2022-11-04T00:47:25;7.22;;;1.58;;
41043;SDS011;51680;49.806;18.774;2022-11-04T00:50:29;7.00;;;2.42;;
41043;SDS011;51680;49.806;18.774;2022-11-04T00:53:30;5.40;;;2.45;;
41043;SDS011;51680;49.806;18.774;2022-11-04T00:56:33;5.90;;;2.80;;
41043;SDS011;51680;49.806;18.774;2022-11-04T00:59:37;5.20;;;2.42;;
41043;SDS011;51680;49.806;18.774;2022-11-04T01:02:40;5.47;;;2.60;;
41043;SDS011;51680;49.806;18.774;2022-11-04T01:05:43;7.40;;;2.95;;
41043;SDS011;51680;49.806;18.774;2022-11-04T01:08:45;7.13;;;2.67;;
41043;SDS011;51680;49.806;18.774;2022-11-04T01:11:47;5.18;;;2.58;;
41043;SDS011;51680;49.806;18.774;2022-11-04T01:14:48;6.35;;;3.00;;
41043;SDS011;51680;49.806;18.774;2022-11-04T01:17:51;6.53;;;2.70;;
41043;SDS011;51680;49.806;18.774;2022-11-04T01:20:54;5.88;;;2.90;;
41043;SDS011;51680;49.806;18.774;2022-11-04T01:23:56;7.03;;;3.03;;
41043;SDS011;51680;49.806;18.774;2022-11-04T01:26:58;8.05;;;3.13;;
41043;SDS011;51680;49.806;18.774;2022-11-04T01:29:59;6.43;;;2.58;;
41043;SDS011;51680;49.806;18.774;2022-11-04T01:33:01;5.93;;;2.80;;
41043;SDS011;51680;49.806;18.774;2022-11-04T01:36:05;7.72;;;2.80;;
41043;SDS011;51680;49.806;18.774;2022-11-04T01:39:08;8.70;;;3.22;;
41043;SDS011;51680;49.806;18.774;2022-11-04T01:42:12;4.57;;;2.35;;
41043;SDS011;51680;49.806;18.774;2022-11-04T01:45:15;6.50;;;2.70;;
41043;SDS011;51680;49.806;18.774;2022-11-04T01:51:23;5.50;;;2.60;;
41043;SDS011;51680;49.806;18.774;2022-11-04T01:54:27;4.97;;;2.75;;
41043;SDS011;51680;49.806;18.774;2022-11-04T01:57:31;7.05;;;3.22;;
41043;SDS011;51680;49.806;18.774;2022-11-04T02:00:36;11.65;;;4.28;;
41043;SDS011;51680;49.806;18.774;2022-11-04T02:03:40;8.82;;;4.00;;
41043;SDS011;51680;49.806;18.774;2022-11-04T02:06:48;9.52;;;4.68;;
41043;SDS011;51680;49.806;18.774;2022-11-04T02:09:53;9.75;;;3.95;;
41043;SDS011;51680;49.806;18.774;2022-11-04T02:12:55;6.50;;;2.60;;
41043;SDS011;51680;49.806;18.774;2022-11-04T02:16:01;8.13;;;2.67;;
41043;SDS011;51680;49.806;18.774;2022-11-04T02:19:17;7.97;;;3.88;;
41043;SDS011;51680;49.806;18.774;2022-11-04T02:26:21;12.10;;;3.05;;
41043;SDS011;51680;49.806;18.774;2022-11-04T02:29:59;4.50;;;2.28;;
41043;SDS011;51680;49.806;18.774;2022-11-04T02:33:11;6.40;;;2.80;;
41043;SDS011;51680;49.806;18.774;2022-11-04T02:36:22;5.13;;;2.60;;
41043;SDS011;51680;49.806;18.774;2022-11-04T02:39:32;5.47;;;3.13;;
41043;SDS011;51680;49.806;18.774;2022-11-04T02:42:41;5.70;;;2.38;;
41043;SDS011;51680;49.806;18.774;2022-11-04T02:46:02;3.63;;;1.58;;
41043;SDS011;51680;49.806;18.774;2022-11-04T02:49:10;6.75;;;2.30;;
41043;SDS011;51680;49.806;18.774;2022-11-04T02:52:14;5.18;;;2.17;;
41043;SDS011;51680;49.806;18.774;2022-11-04T02:55:20;6.50;;;2.40;;
41043;SDS011;51680;49.806;18.774;2022-11-04T02:58:28;6.60;;;2.60;;
41043;SDS011;51680;49.806;18.774;2022-11-04T03:01:35;6.85;;;2.58;;
41043;SDS011;51680;49.806;18.774;2022-11-04T03:04:41;4.90;;;2.63;;
41043;SDS011;51680;49.806;18.774;2022-11-04T03:07:48;4.47;;;2.38;;
41043;SDS011;51680;49.806;18.774;2022-11-04T03:10:52;6.50;;;2.83;;
41043;SDS011;51680;49.806;18.774;2022-11-04T03:13:59;5.38;;;2.45;;
41043;SDS011;51680;49.806;18.774;2022-11-04T03:17:06;5.32;;;2.45;;
41043;SDS011;51680;49.806;18.774;2022-11-04T03:20:15;5.93;;;2.42;;
41043;SDS011;51680;49.806;18.774;2022-11-04T03:23:21;5.50;;;2.50;;
41043;SDS011;51680;49.806;18.774;2022-11-04T03:26:24;5.72;;;2.95;;
41043;SDS011;51680;49.806;18.774;2022-11-04T03:29:30;5.97;;;2.88;;
41043;SDS011;51680;49.806;18.774;2022-11-04T03:32:38;6.97;;;3.17;;
41043;SDS011;51680;49.806;18.774;2022-11-04T03:35:44;5.63;;;2.75;;
41043;SDS011;51680;49.806;18.774;2022-11-04T03:38:46;5.68;;;2.88;;
41043;SDS011;51680;49.806;18.774;2022-11-04T03:41:49;4.43;;;2.65;;
41043;SDS011;51680;49.806;18.774;2022-11-04T03:44:55;6.25;;;2.92;;
41043;SDS011;51680;49.806;18.774;2022-11-04T03:47:59;6.53;;;2.92;;
41043;SDS011;51680;49.806;18.774;2022-11-04T03:51:01;7.03;;;3.28;;
41043;SDS011;51680;49.806;18.774;2022-11-04T03:54:03;5.63;;;3.03;;
41043;SDS011;51680;49.806;18.774;2022-11-04T03:57:17;7.30;;;2.88;;
41043;SDS011;51680;49.806;18.774;2022-11-04T04:00:32;6.90;;;2.80;;
41043;SDS011;51680;49.806;18.774;2022-11-04T04:03:41;5.07;;;2.80;;
41043;SDS011;51680;49.806;18.774;2022-11-04T04:06:51;7.60;;;2.95;;
41043;SDS011;51680;49.806;18.774;2022-11-04T04:09:59;7.35;;;2.83;;
41043;SDS011;51680;49.806;18.774;2022-11-04T04:13:29;6.72;;;2.60;;
41043;SDS011;51680;49.806;18.774;2022-11-04T04:16:38;6.75;;;3.50;;
41043;SDS011;51680;49.806;18.774;2022-11-04T04:19:46;8.95;;;3.50;;
41043;SDS011;51680;49.806;18.774;2022-11-04T04:22:52;8.05;;;3.15;;
41043;SDS011;51680;49.806;18.774;2022-11-04T04:25:58;5.05;;;2.97;;
41043;SDS011;51680;49.806;18.774;2022-11-04T04:29:21;6.83;;;3.00;;
41043;SDS011;51680;49.806;18.774;2022-11-04T04:32:24;6.85;;;2.75;;
41043;SDS011;51680;49.806;18.774;2022-11-04T04:35:32;8.45;;;3.00;;
41043;SDS011;51680;49.806;18.774;2022-11-04T04:38:43;8.82;;;2.90;;
41043;SDS011;51680;49.806;18.774;2022-11-04T04:42:02;5.53;;;2.80;;
41043;SDS011;51680;49.806;18.774;2022-11-04T04:45:24;5.70;;;2.85;;
41043;SDS011;51680;49.806;18.774;2022-11-04T04:48:50;7.07;;;3.03;;
41043;SDS011;51680;49.806;18.774;2022-11-04T04:51:53;4.85;;;2.80;;
41043;SDS011;51680;49.806;18.774;2022-11-04T04:54:55;4.83;;;2.77;;
41043;SDS011;51680;49.806;18.774;2022-11-04T04:57:56;6.72;;;2.88;;
41043;SDS011;51680;49.806;18.774;2022-11-04T05:00:58;8.25;;;3.08;;
41043;SDS011;51680;49.806;18.774;2022-11-04T05:04:00;8.52;;;2.95;;
41043;SDS011;51680;49.806;18.774;2022-11-04T05:07:03;8.13;;;3.28;;
41043;SDS011;51680;49.806;18.774;2022-11-04T05:10:06;12.98;;;3.80;;
41043;SDS011;51680;49.806;18.774;2022-11-04T05:13:10;7.22;;;3.20;;
41043;SDS011;51680;49.806;18.774;2022-11-04T05:16:29;6.85;;;3.38;;
41043;SDS011;51680;49.806;18.774;2022-11-04T05:19:30;6.03;;;2.72;;
41043;SDS011;51680;49.806;18.774;2022-11-04T05:22:34;7.75;;;2.88;;
41043;SDS011;51680;49.806;18.774;2022-11-04T05:25:35;8.47;;;3.37;;
41043;SDS011;51680;49.806;18.774;2022-11-04T05:28:38;7.67;;;2.50;;
41043;SDS011;51680;49.806;18.774;2022-11-04T05:31:40;7.88;;;3.03;;
41043;SDS011;51680;49.806;18.774;2022-11-04T05:34:42;5.53;;;2.83;;
41043;SDS011;51680;49.806;18.774;2022-11-04T05:37:46;5.70;;;2.60;;
41043;SDS011;51680;49.806;18.774;2022-11-04T05:40:47;4.93;;;2.60;;
41043;SDS011;51680;49.806;18.774;2022-11-04T05:43:50;6.25;;;2.95;;
41043;SDS011;51680;49.806;18.774;2022-11-04T05:46:51;7.63;;;2.50;;
41043;SDS011;51680;49.806;18.774;2022-11-04T05:49:53;6.95;;;3.15;;
41043;SDS011;51680;49.806;18.774;2022-11-04T05:52:57;4.68;;;2.65;;
41043;SDS011;51680;49.806;18.774;2022-11-04T05:55:59;7.43;;;3.00;;
41043;SDS011;51680;49.806;18.774;2022-11-04T05:59:00;8.10;;;3.08;;
41043;SDS011;51680;49.806;18.774;2022-11-04T06:02:02;10.57;;;3.08;;
41043;SDS011;51680;49.806;18.774;2022-11-04T06:05:04;6.97;;;3.28;;
41043;SDS011;51680;49.806;18.774;2022-11-04T06:08:08;9.40;;;3.90;;
41043;SDS011;51680;49.806;18.774;2022-11-04T06:11:10;9.60;;;3.55;;
41043;SDS011;51680;49.806;18.774;2022-11-04T06:14:12;9.57;;;3.50;;
41043;SDS011;51680;49.806;18.774;2022-11-04T06:17:14;6.38;;;2.95;;
41043;SDS011;51680;49.806;18.774;2022-11-04T06:20:16;8.70;;;3.40;;
41043;SDS011;51680;49.806;18.774;2022-11-04T06:23:19;9.80;;;3.70;;
41043;SDS011;51680;49.806;18.774;2022-11-04T06:26:21;8.98;;;3.60;;
41043;SDS011;51680;49.806;18.774;2022-11-04T06:29:23;10.02;;;3.88;;
41043;SDS011;51680;49.806;18.774;2022-11-04T06:32:25;8.45;;;3.65;;
41043;SDS011;51680;49.806;18.774;2022-11-04T06:35:27;8.25;;;3.78;;
41043;SDS011;51680;49.806;18.774;2022-11-04T06:38:30;9.07;;;3.92;;
41043;SDS011;51680;49.806;18.774;2022-11-04T06:41:33;9.98;;;3.85;;
41043;SDS011;51680;49.806;18.774;2022-11-04T06:44:35;7.32;;;3.88;;
41043;SDS011;51680;49.806;18.774;2022-11-04T06:47:36;8.82;;;4.10;;
41043;SDS011;51680;49.806;18.774;2022-11-04T06:50:38;8.38;;;4.15;;
41043;SDS011;51680;49.806;18.774;2022-11-04T06:53:41;8.32;;;4.20;;
41043;SDS011;51680;49.806;18.774;2022-11-04T06:56:43;9.15;;;4.50;;
41043;SDS011;51680;49.806;18.774;2022-11-04T06:59:46;8.05;;;4.57;;
41043;SDS011;51680;49.806;18.774;2022-11-04T07:02:48;8.73;;;4.82;;
41043;SDS011;51680;49.806;18.774;2022-11-04T07:05:49;12.38;;;5.45;;
41043;SDS011;51680;49.806;18.774;2022-11-04T07:08:54;9.43;;;5.03;;
41043;SDS011;51680;49.806;18.774;2022-11-04T07:11:57;8.00;;;4.93;;
41043;SDS011;51680;49.806;18.774;2022-11-04T07:14:59;10.77;;;4.78;;
41043;SDS011;51680;49.806;18.774;2022-11-04T07:18:01;10.73;;;4.72;;
41043;SDS011;51680;49.806;18.774;2022-11-04T07:21:03;8.52;;;4.38;;
41043;SDS011;51680;49.806;18.774;2022-11-04T07:24:07;10.02;;;4.57;;
41043;SDS011;51680;49.806;18.774;2022-11-04T07:27:09;7.80;;;4.07;;
41043;SDS011;51680;49.806;18.774;2022-11-04T07:30:10;10.02;;;4.95;;
41043;SDS011;51680;49.806;18.774;2022-11-04T07:33:12;9.75;;;5.18;;
41043;SDS011;51680;49.806;18.774;2022-11-04T07:36:14;10.18;;;5.03;;
41043;SDS011;51680;49.806;18.774;2022-11-04T07:39:18;9.73;;;4.80;;
41043;SDS011;51680;49.806;18.774;2022-11-04T07:42:20;7.05;;;4.75;;
41043;SDS011;51680;49.806;18.774;2022-11-04T07:45:27;10.20;;;4.97;;
41043;SDS011;51680;49.806;18.774;2022-11-04T07:48:29;9.05;;;4.75;;
41043;SDS011;51680;49.806;18.774;2022-11-04T07:51:31;11.98;;;5.22;;
41043;SDS011;51680;49.806;18.774;2022-11-04T07:54:34;10.40;;;5.30;;
41043;SDS011;51680;49.806;18.774;2022-11-04T07:57:36;11.50;;;5.75;;
41043;SDS011;51680;49.806;18.774;2022-11-04T08:00:38;11.40;;;5.43;;
41043;SDS011;51680;49.806;18.774;2022-11-04T08:03:40;10.18;;;5.65;;
41043;SDS011;51680;49.806;18.774;2022-11-04T08:06:42;8.68;;;5.80;;
41043;SDS011;51680;49.806;18.774;2022-11-04T08:09:45;12.52;;;5.45;;
41043;SDS011;51680;49.806;18.774;2022-11-04T08:12:47;11.30;;;5.97;;
41043;SDS011;51680;49.806;18.774;2022-11-04T08:15:49;10.57;;;5.55;;
41043;SDS011;51680;49.806;18.774;2022-11-04T08:18:50;9.15;;;5.22;;
41043;SDS011;51680;49.806;18.774;2022-11-04T08:21:52;13.00;;;5.50;;
41043;SDS011;51680;49.806;18.774;2022-11-04T08:24:55;9.48;;;5.22;;
41043;SDS011;51680;49.806;18.774;2022-11-04T08:27:57;9.38;;;5.35;;
41043;SDS011;51680;49.806;18.774;2022-11-04T08:31:00;10.35;;;5.13;;
41043;SDS011;51680;49.806;18.774;2022-11-04T08:34:03;10.60;;;4.88;;
41043;SDS011;51680;49.806;18.774;2022-11-04T08:37:07;11.77;;;4.57;;
41043;SDS011;51680;49.806;18.774;2022-11-04T08:40:10;7.47;;;4.85;;
41043;SDS011;51680;49.806;18.774;2022-11-04T08:43:12;11.75;;;4.32;;
41043;SDS011;51680;49.806;18.774;2022-11-04T08:46:14;11.32;;;5.53;;
41043;SDS011;51680;49.806;18.774;2022-11-04T08:49:17;12.55;;;6.15;;
41043;SDS011;51680;49.806;18.774;2022-11-04T08:52:37;10.52;;;4.95;;
41043;SDS011;51680;49.806;18.774;2022-11-04T08:55:40;14.35;;;5.78;;
41043;SDS011;51680;49.806;18.774;2022-11-04T08:58:42;10.50;;;5.20;;
41043;SDS011;51680;49.806;18.774;2022-11-04T09:01:44;9.25;;;5.53;;
41043;SDS011;51680;49.806;18.774;2022-11-04T09:04:46;10.57;;;5.45;;
41043;SDS011;51680;49.806;18.774;2022-11-04T09:07:48;7.78;;;4.35;;
41043;SDS011;51680;49.806;18.774;2022-11-04T09:10:51;8.68;;;5.35;;
41043;SDS011;51680;49.806;18.774;2022-11-04T09:13:53;10.85;;;5.07;;
41043;SDS011;51680;49.806;18.774;2022-11-04T09:16:55;12.40;;;4.78;;
41043;SDS011;51680;49.806;18.774;2022-11-04T09:19:57;9.23;;;5.35;;
41043;SDS011;51680;49.806;18.774;2022-11-04T09:22:59;11.80;;;5.43;;
41043;SDS011;51680;49.806;18.774;2022-11-04T09:26:06;12.32;;;5.55;;
41043;SDS011;51680;49.806;18.774;2022-11-04T09:29:10;14.63;;;6.38;;
41043;SDS011;51680;49.806;18.774;2022-11-04T09:32:12;10.00;;;5.10;;
41043;SDS011;51680;49.806;18.774;2022-11-04T09:35:13;6.65;;;3.58;;
41043;SDS011;51680;49.806;18.774;2022-11-04T09:38:16;9.30;;;5.80;;
41043;SDS011;51680;49.806;18.774;2022-11-04T09:41:33;9.43;;;5.47;;
41043;SDS011;51680;49.806;18.774;2022-11-04T09:44:48;10.38;;;5.75;;
41043;SDS011;51680;49.806;18.774;2022-11-04T09:47:54;9.57;;;5.20;;
41043;SDS011;51680;49.806;18.774;2022-11-04T09:51:01;10.60;;;5.45;;
41043;SDS011;51680;49.806;18.774;2022-11-04T09:54:07;8.05;;;5.15;;
41043;SDS011;51680;49.806;18.774;2022-11-04T09:57:18;9.15;;;5.20;;
41043;SDS011;51680;49.806;18.774;2022-11-04T10:00:20;9.95;;;4.85;;
41043;SDS011;51680;49.806;18.774;2022-11-04T10:03:25;10.68;;;5.40;;
41043;SDS011;51680;49.806;18.774;2022-11-04T10:06:45;10.00;;;5.40;;
41043;SDS011;51680;49.806;18.774;2022-11-04T10:10:03;12.50;;;5.57;;
41043;SDS011;51680;49.806;18.774;2022-11-04T10:13:38;11.13;;;5.90;;
41043;SDS011;51680;49.806;18.774;2022-11-04T10:16:55;10.57;;;5.57;;
41043;SDS011;51680;49.806;18.774;2022-11-04T10:20:15;9.77;;;5.50;;
41043;SDS011;51680;49.806;18.774;2022-11-04T10:23:26;11.00;;;5.28;;
41043;SDS011;51680;49.806;18.774;2022-11-04T10:26:36;15.93;;;5.80;;
41043;SDS011;51680;49.806;18.774;2022-11-04T10:29:46;9.05;;;5.30;;
41043;SDS011;51680;49.806;18.774;2022-11-04T10:32:52;8.05;;;5.70;;
41043;SDS011;51680;49.806;18.774;2022-11-04T10:36:00;10.35;;;6.43;;
41043;SDS011;51680;49.806;18.774;2022-11-04T10:39:08;14.73;;;5.72;;
41043;SDS011;51680;49.806;18.774;2022-11-04T10:42:18;12.05;;;5.43;;
41043;SDS011;51680;49.806;18.774;2022-11-04T10:45:42;9.63;;;4.85;;
41043;SDS011;51680;49.806;18.774;2022-11-04T10:48:54;9.00;;;5.47;;
41043;SDS011;51680;49.806;18.774;2022-11-04T10:52:03;7.43;;;4.05;;
41043;SDS011;51680;49.806;18.774;2022-11-04T10:55:10;11.27;;;5.45;;
41043;SDS011;51680;49.806;18.774;2022-11-04T10:58:20;10.70;;;5.72;;
41043;SDS011;51680;49.806;18.774;2022-11-04T11:01:27;11.02;;;6.35;;
41043;SDS011;51680;49.806;18.774;2022-11-04T11:04:31;10.25;;;5.68;;
41043;SDS011;51680;49.806;18.774;2022-11-04T11:07:35;13.38;;;5.47;;
41043;SDS011;51680;49.806;18.774;2022-11-04T11:10:37;14.93;;;5.93;;
41043;SDS011;51680;49.806;18.774;2022-11-04T11:13:51;11.05;;;6.32;;
41043;SDS011;51680;49.806;18.774;2022-11-04T11:16:55;11.48;;;5.55;;
41043;SDS011;51680;49.806;18.774;2022-11-04T11:23:02;10.60;;;5.75;;
41043;SDS011;51680;49.806;18.774;2022-11-04T11:26:09;10.70;;;6.30;;
41043;SDS011;51680;49.806;18.774;2022-11-04T11:29:16;14.23;;;6.03;;
41043;SDS011;51680;49.806;18.774;2022-11-04T11:32:26;11.50;;;6.47;;
41043;SDS011;51680;49.806;18.774;2022-11-04T11:35:33;12.68;;;6.60;;
41043;SDS011;51680;49.806;18.774;2022-11-04T11:38:50;13.10;;;6.70;;
41043;SDS011;51680;49.806;18.774;2022-11-04T11:41:56;13.13;;;6.63;;
41043;SDS011;51680;49.806;18.774;2022-11-04T11:45:01;14.75;;;6.53;;
41043;SDS011;51680;49.806;18.774;2022-11-04T11:51:32;14.43;;;7.10;;
41043;SDS011;51680;49.806;18.774;2022-11-04T11:54:36;12.85;;;7.03;;
41043;SDS011;51680;49.806;18.774;2022-11-04T11:57:41;15.20;;;6.80;;
41043;SDS011;51680;49.806;18.774;2022-11-04T12:00:49;11.73;;;6.63;;
41043;SDS011;51680;49.806;18.774;2022-11-04T12:03:58;10.50;;;6.45;;
41043;SDS011;51680;49.806;18.774;2022-11-04T12:07:02;12.13;;;6.63;;
41043;SDS011;51680;49.806;18.774;2022-11-04T12:10:10;12.80;;;6.93;;
41043;SDS011;51680;49.806;18.774;2022-11-04T12:13:24;12.32;;;6.75;;
41043;SDS011;51680;49.806;18.774;2022-11-04T12:16:31;12.80;;;7.13;;
41043;SDS011;51680;49.806;18.774;2022-11-04T12:19:43;15.70;;;7.97;;
41043;SDS011;51680;49.806;18.774;2022-11-04T12:22:57;15.00;;;7.80;;
41043;SDS011;51680;49.806;18.774;2022-11-04T12:26:10;13.13;;;7.50;;
41043;SDS011;51680;49.806;18.774;2022-11-04T12:29:22;17.95;;;8.25;;
41043;SDS011;51680;49.806;18.774;2022-11-04T12:32:37;20.05;;;9.05;;
41043;SDS011;51680;49.806;18.774;2022-11-04T12:35:53;20.08;;;9.70;;
41043;SDS011;51680;49.806;18.774;2022-11-04T12:39:05;18.23;;;8.98;;
41043;SDS011;51680;49.806;18.774;2022-11-04T12:42:20;19.67;;;8.77;;
41043;SDS011;51680;49.806;18.774;2022-11-04T12:45:29;17.00;;;7.93;;
41043;SDS011;51680;49.806;18.774;2022-11-04T12:48:48;14.80;;;8.07;;
41043;SDS011;51680;49.806;18.774;2022-11-04T12:52:07;19.23;;;8.13;;
41043;SDS011;51680;49.806;18.774;2022-11-04T12:55:23;15.60;;;8.30;;
41043;SDS011;51680;49.806;18.774;2022-11-04T12:58:38;12.05;;;7.78;;
41043;SDS011;51680;49.806;18.774;2022-11-04T13:01:51;14.68;;;7.35;;
41043;SDS011;51680;49.806;18.774;2022-11-04T13:04:58;16.00;;;7.53;;
41043;SDS011;51680;49.806;18.774;2022-11-04T13:08:09;10.80;;;7.15;;
41043;SDS011;51680;49.806;18.774;2022-11-04T13:11:19;11.83;;;6.50;;
41043;SDS011;51680;49.806;18.774;2022-11-04T13:14:25;12.05;;;7.07;;
41043;SDS011;51680;49.806;18.774;2022-11-04T13:17:31;9.90;;;6.53;;
41043;SDS011;51680;49.806;18.774;2022-11-04T13:20:39;13.40;;;6.93;;
41043;SDS011;51680;49.806;18.774;2022-11-04T13:23:47;12.07;;;7.20;;
41043;SDS011;51680;49.806;18.774;2022-11-04T13:26:52;10.63;;;6.85;;
41043;SDS011;51680;49.806;18.774;2022-11-04T13:29:59;14.27;;;7.70;;
41043;SDS011;51680;49.806;18.774;2022-11-04T13:33:07;14.63;;;7.25;;
41043;SDS011;51680;49.806;18.774;2022-11-04T13:36:20;17.15;;;8.18;;
41043;SDS011;51680;49.806;18.774;2022-11-04T13:39:30;16.70;;;7.82;;
41043;SDS011;51680;49.806;18.774;2022-11-04T13:46:26;16.67;;;7.72;;
41043;SDS011;51680;49.806;18.774;2022-11-04T13:49:30;10.05;;;6.80;;
41043;SDS011;51680;49.806;18.774;2022-11-04T13:52:33;13.55;;;7.00;;
41043;SDS011;51680;49.806;18.774;2022-11-04T13:55:51;15.27;;;6.78;;
41043;SDS011;51680;49.806;18.774;2022-11-04T13:58:53;13.68;;;6.25;;
41043;SDS011;51680;49.806;18.774;2022-11-04T14:12:52;9.75;;;6.10;;
41043;SDS011;51680;49.806;18.774;2022-11-04T14:15:57;12.43;;;6.17;;
41043;SDS011;51680;49.806;18.774;2022-11-04T14:19:44;10.82;;;5.97;;
41043;SDS011;51680;49.806;18.774;2022-11-04T14:22:57;9.35;;;5.90;;
41043;SDS011;51680;49.806;18.774;2022-11-04T14:26:00;13.05;;;6.10;;
41043;SDS011;51680;49.806;18.774;2022-11-04T14:29:06;10.85;;;6.53;;
41043;SDS011;51680;49.806;18.774;2022-11-04T14:32:17;11.02;;;6.20;;
41043;SDS011;51680;49.806;18.774;2022-11-04T14:35:25;11.05;;;6.95;;
41043;SDS011;51680;49.806;18.774;2022-11-04T14:38:31;10.38;;;6.25;;
41043;SDS011;51680;49.806;18.774;2022-11-04T14:41:54;13.18;;;7.05;;
41043;SDS011;51680;49.806;18.774;2022-11-04T14:44:59;13.05;;;7.15;;
41043;SDS011;51680;49.806;18.774;2022-11-04T14:48:14;12.57;;;6.70;;
41043;SDS011;51680;49.806;18.774;2022-11-04T14:51:21;11.68;;;6.35;;
41043;SDS011;51680;49.806;18.774;2022-11-04T14:54:25;14.27;;;5.85;;
41043;SDS011;51680;49.806;18.774;2022-11-04T14:57:35;12.95;;;7.25;;
41043;SDS011;51680;49.806;18.774;2022-11-04T15:00:39;17.45;;;8.70;;
41043;SDS011;51680;49.806;18.774;2022-11-04T15:03:53;15.68;;;7.72;;
41043;SDS011;51680;49.806;18.774;2022-11-04T15:06:56;13.48;;;7.45;;
41043;SDS011;51680;49.806;18.774;2022-11-04T15:10:00;12.57;;;6.57;;
41043;SDS011;51680;49.806;18.774;2022-11-04T15:13:04;12.85;;;7.10;;
41043;SDS011;51680;49.806;18.774;2022-11-04T15:16:10;11.25;;;6.10;;
41043;SDS011;51680;49.806;18.774;2022-11-04T15:19:17;23.70;;;11.93;;
41043;SDS011;51680;49.806;18.774;2022-11-04T15:22:26;16.60;;;9.98;;
41043;SDS011;51680;49.806;18.774;2022-11-04T15:25:30;27.02;;;10.77;;
41043;SDS011;51680;49.806;18.774;2022-11-04T15:28:32;16.92;;;8.38;;
41043;SDS011;51680;49.806;18.774;2022-11-04T15:31:37;20.95;;;13.10;;
41043;SDS011;51680;49.806;18.774;2022-11-04T15:34:50;25.95;;;14.48;;
41043;SDS011;51680;49.806;18.774;2022-11-04T15:37:53;23.80;;;13.15;;
41043;SDS011;51680;49.806;18.774;2022-11-04T15:40:57;21.60;;;12.65;;
41043;SDS011;51680;49.806;18.774;2022-11-04T15:44:19;23.65;;;11.80;;
41043;SDS011;51680;49.806;18.774;2022-11-04T15:47:25;22.27;;;12.68;;
41043;SDS011;51680;49.806;18.774;2022-11-04T15:50:28;22.25;;;11.38;;
41043;SDS011;51680;49.806;18.774;2022-11-04T15:53:31;19.67;;;11.15;;
41043;SDS011;51680;49.806;18.774;2022-11-04T15:56:37;25.52;;;11.23;;
41043;SDS011;51680;49.806;18.774;2022-11-04T15:59:44;25.05;;;13.18;;
41043;SDS011;51680;49.806;18.774;2022-11-04T16:02:49;21.00;;;12.02;;
41043;SDS011;51680;49.806;18.774;2022-11-04T16:06:01;25.77;;;13.52;;
41043;SDS011;51680;49.806;18.774;2022-11-04T16:09:05;21.45;;;11.82;;
41043;SDS011;51680;49.806;18.774;2022-11-04T16:12:27;20.33;;;11.73;;
41043;SDS011;51680;49.806;18.774;2022-11-04T16:15:32;21.23;;;10.90;;
41043;SDS011;51680;49.806;18.774;2022-11-04T16:18:37;22.77;;;12.48;;
41043;SDS011;51680;49.806;18.774;2022-11-04T16:21:42;23.48;;;10.80;;
41043;SDS011;51680;49.806;18.774;2022-11-04T16:24:44;22.80;;;12.15;;
41043;SDS011;51680;49.806;18.774;2022-11-04T16:27:48;26.77;;;13.55;;
41043;SDS011;51680;49.806;18.774;2022-11-04T16:30:54;21.83;;;11.55;;
41043;SDS011;51680;49.806;18.774;2022-11-04T16:33:58;47.45;;;21.45;;
41043;SDS011;51680;49.806;18.774;2022-11-04T16:37:00;84.20;;;45.50;;
41043;SDS011;51680;49.806;18.774;2022-11-04T16:40:02;45.88;;;27.92;;
41043;SDS011;51680;49.806;18.774;2022-11-04T16:43:07;47.83;;;25.52;;
41043;SDS011;51680;49.806;18.774;2022-11-04T16:46:09;44.13;;;23.52;;
41043;SDS011;51680;49.806;18.774;2022-11-04T16:49:14;39.53;;;21.48;;
41043;SDS011;51680;49.806;18.774;2022-11-04T16:52:19;41.00;;;21.35;;
41043;SDS011;51680;49.806;18.774;2022-11-04T16:55:25;39.25;;;21.67;;
41043;SDS011;51680;49.806;18.774;2022-11-04T16:58:28;45.13;;;22.67;;
41043;SDS011;51680;49.806;18.774;2022-11-04T17:01:30;41.88;;;23.38;;
41043;SDS011;51680;49.806;18.774;2022-11-04T17:04:33;38.53;;;22.52;;
41043;SDS011;51680;49.806;18.774;2022-11-04T17:07:36;41.88;;;21.40;;
41043;SDS011;51680;49.806;18.774;2022-11-04T17:10:37;41.92;;;22.65;;
41043;SDS011;51680;49.806;18.774;2022-11-04T17:13:39;33.95;;;19.02;;
41043;SDS011;51680;49.806;18.774;2022-11-04T17:16:41;30.85;;;15.52;;
41043;SDS011;51680;49.806;18.774;2022-11-04T17:19:44;26.70;;;13.65;;
41043;SDS011;51680;49.806;18.774;2022-11-04T17:22:46;23.67;;;13.65;;
41043;SDS011;51680;49.806;18.774;2022-11-04T17:25:48;28.75;;;14.02;;
41043;SDS011;51680;49.806;18.774;2022-11-04T17:28:50;30.90;;;14.45;;
41043;SDS011;51680;49.806;18.774;2022-11-04T17:31:52;30.85;;;14.85;;
41043;SDS011;51680;49.806;18.774;2022-11-04T17:34:56;28.90;;;15.13;;
41043;SDS011;51680;49.806;18.774;2022-11-04T17:37:58;29.50;;;14.60;;
41043;SDS011;51680;49.806;18.774;2022-11-04T17:40:59;24.95;;;13.77;;
41043;SDS011;51680;49.806;18.774;2022-11-04T17:44:18;28.77;;;13.75;;
41043;SDS011;51680;49.806;18.774;2022-11-04T17:47:20;24.88;;;13.45;;
41043;SDS011;51680;49.806;18.774;2022-11-04T17:50:23;123.43;;;27.15;;
41043;SDS011;51680;49.806;18.774;2022-11-04T17:53:25;69.23;;;34.07;;
41043;SDS011;51680;49.806;18.774;2022-11-04T17:56:27;99.30;;;36.05;;
41043;SDS011;51680;49.806;18.774;2022-11-04T17:59:29;80.78;;;30.83;;
41043;SDS011;51680;49.806;18.774;2022-11-04T18:02:32;97.10;;;28.17;;
41043;SDS011;51680;49.806;18.774;2022-11-04T18:05:35;52.05;;;18.90;;
41043;SDS011;51680;49.806;18.774;2022-11-04T18:08:37;44.13;;;17.58;;
41043;SDS011;51680;49.806;18.774;2022-11-04T18:11:39;30.83;;;15.48;;
41043;SDS011;51680;49.806;18.774;2022-11-04T18:14:59;509.02;;;43.78;;
41043;SDS011;51680;49.806;18.774;2022-11-04T18:18:01;38.33;;;15.50;;
41043;SDS011;51680;49.806;18.774;2022-11-04T18:21:04;50.25;;;20.35;;
41043;SDS011;51680;49.806;18.774;2022-11-04T18:24:08;58.80;;;25.13;;
41043;SDS011;51680;49.806;18.774;2022-11-04T18:27:10;49.20;;;28.15;;
41043;SDS011;51680;49.806;18.774;2022-11-04T18:30:12;47.70;;;24.60;;
41043;SDS011;51680;49.806;18.774;2022-11-04T18:33:15;36.40;;;21.98;;
41043;SDS011;51680;49.806;18.774;2022-11-04T18:36:18;271.27;;;32.95;;
41043;SDS011;51680;49.806;18.774;2022-11-04T18:39:20;90.35;;;23.55;;
41043;SDS011;51680;49.806;18.774;2022-11-04T18:42:23;79.30;;;17.83;;
41043;SDS011;51680;49.806;18.774;2022-11-04T18:45:24;383.27;;;39.38;;